Time;durP1;ratioP1;P1;durP2;ratioP2;P2;SDS_P1;SDS_P2;PMS_P1;PMS_P2;Temp;Humidity;BMP_temperature;BMP_pressure;BME280_temperature;BME280_humidity;BME280_pressure;Samples;Min_cycle;Max_cycle;Signal;HPM_P1;HPM_P2
2023/09/29 00:00:18;;;;;;;17.80;11.55;;;19.10;99.90;;;;;;6240716;23;20023;-68
2023/09/29 00:03:06;;;;;;;14.15;10.45;;;19.10;99.90;;;;;;6242135;23;20036;-69
2023/09/29 00:05:53;;;;;;;13.85;9.40;;;19.10;99.90;;;;;;6240582;23;20016;-68
2023/09/29 00:08:39;;;;;;;15.98;10.88;;;19.10;99.90;;;;;;6240566;23;20417;-68
2023/09/29 00:11:26;;;;;;;18.33;10.65;;;19.00;99.90;;;;;;6241163;23;20022;-68
2023/09/29 00:14:13;;;;;;;13.38;9.93;;;19.00;99.90;;;;;;6240871;23;20082;-67
2023/09/29 00:16:59;;;;;;;15.43;11.13;;;19.00;99.90;;;;;;6241046;23;20050;-68
2023/09/29 00:19:45;;;;;;;14.02;9.88;;;19.00;99.90;;;;;;6220649;23;20012;-68
2023/09/29 00:22:31;;;;;;;17.27;10.68;;;18.90;99.90;;;;;;6239536;23;20102;-68
2023/09/29 00:25:17;;;;;;;15.32;10.68;;;18.90;99.90;;;;;;6240364;23;20012;-69
2023/09/29 00:28:03;;;;;;;15.95;9.73;;;18.90;99.90;;;;;;6240638;23;20004;-68
2023/09/29 00:30:49;;;;;;;15.73;10.80;;;18.90;99.90;;;;;;6241021;23;20012;-67
2023/09/29 00:33:35;;;;;;;15.68;11.38;;;18.90;99.90;;;;;;6240995;22;20023;-67
2023/09/29 00:36:21;;;;;;;13.75;10.55;;;18.80;99.90;;;;;;6240959;23;20450;-68
2023/09/29 00:39:10;;;;;;;17.20;11.65;;;18.90;99.90;;;;;;6240699;23;20060;-69
2023/09/29 00:41:56;;;;;;;15.90;10.38;;;18.80;99.90;;;;;;6240208;23;20087;-68
2023/09/29 00:44:43;;;;;;;16.83;11.65;;;18.80;99.90;;;;;;6240811;23;20008;-68
2023/09/29 00:47:29;;;;;;;13.88;10.77;;;18.80;99.90;;;;;;6241620;23;20389;-68
2023/09/29 00:50:15;;;;;;;17.80;10.95;;;18.80;99.90;;;;;;6240085;23;20004;-68
2023/09/29 00:53:14;;;;;;;14.13;11.45;;;18.80;99.90;;;;;;6240962;23;20020;-69
2023/09/29 00:56:01;;;;;;;16.30;11.93;;;18.80;99.90;;;;;;6241194;22;20393;-68
2023/09/29 00:58:47;;;;;;;16.52;11.50;;;18.80;99.90;;;;;;6240094;23;20012;-68
2023/09/29 01:01:34;;;;;;;16.02;11.15;;;18.70;99.90;;;;;;6239662;23;20070;-69
2023/09/29 01:04:23;;;;;;;18.42;11.70;;;18.70;99.90;;;;;;6240885;23;20035;-68
2023/09/29 01:07:10;;;;;;;15.95;11.75;;;18.70;99.90;;;;;;6240606;23;20016;-68
2023/09/29 01:09:57;;;;;;;16.95;12.15;;;18.60;99.90;;;;;;6239610;23;20023;-68
2023/09/29 01:12:44;;;;;;;15.95;11.77;;;18.60;99.90;;;;;;6238723;23;20016;-69
2023/09/29 01:15:32;;;;;;;17.20;11.25;;;18.60;99.90;;;;;;6240109;23;20099;-68
2023/09/29 01:18:19;;;;;;;17.73;10.70;;;18.60;99.90;;;;;;6240624;23;20008;-68
2023/09/29 01:21:06;;;;;;;16.45;12.75;;;18.60;99.90;;;;;;6240536;23;20008;-69
2023/09/29 01:23:52;;;;;;;16.90;11.90;;;18.60;99.90;;;;;;6241018;23;20016;-69
2023/09/29 01:26:38;;;;;;;15.88;10.52;;;18.50;99.90;;;;;;6240289;23;20032;-68
2023/09/29 01:29:25;;;;;;;14.68;10.77;;;18.50;99.90;;;;;;6240338;23;20327;-69
2023/09/29 01:32:14;;;;;;;16.05;10.80;;;18.50;99.90;;;;;;6240384;23;20516;-67
2023/09/29 01:35:02;;;;;;;16.48;11.00;;;18.40;99.90;;;;;;6239034;23;20436;-69
2023/09/29 01:37:49;;;;;;;18.38;12.20;;;18.40;99.90;;;;;;6241598;23;20015;-69
2023/09/29 01:40:34;;;;;;;16.25;10.75;;;18.40;99.90;;;;;;6240406;23;20330;-68
2023/09/29 01:43:23;;;;;;;21.45;11.13;;;18.40;99.90;;;;;;6240597;23;20410;-68
2023/09/29 01:46:11;;;;;;;14.27;10.55;;;18.40;99.90;;;;;;6239286;23;20015;-68
2023/09/29 01:48:57;;;;;;;19.63;11.18;;;18.40;99.90;;;;;;6239161;23;20036;-69
2023/09/29 01:51:44;;;;;;;12.52;10.50;;;18.40;99.90;;;;;;6240809;23;20016;-60
2023/09/29 01:54:31;;;;;;;13.43;11.27;;;18.40;99.90;;;;;;6239408;23;20300;-60
2023/09/29 01:57:17;;;;;;;21.05;12.38;;;18.30;99.90;;;;;;6239025;22;20089;-60
2023/09/29 02:00:04;;;;;;;17.08;11.18;;;18.30;99.90;;;;;;6238247;23;20008;-60
2023/09/29 02:02:52;;;;;;;19.45;11.45;;;18.30;99.90;;;;;;6240404;23;20173;-68
2023/09/29 02:05:38;;;;;;;15.40;11.10;;;18.30;99.90;;;;;;6238954;23;20012;-68
2023/09/29 02:08:25;;;;;;;15.70;11.55;;;18.30;99.90;;;;;;6240284;23;20442;-69
2023/09/29 02:11:12;;;;;;;16.75;11.32;;;18.30;99.90;;;;;;6239081;23;20549;-68
2023/09/29 02:13:58;;;;;;;15.65;11.13;;;18.30;99.90;;;;;;6239025;23;20008;-68
2023/09/29 02:16:44;;;;;;;17.13;10.95;;;18.30;99.90;;;;;;6241303;23;20472;-69
2023/09/29 02:19:36;;;;;;;16.90;11.63;;;18.30;99.90;;;;;;6240393;23;20087;-68
2023/09/29 02:22:22;;;;;;;17.00;11.27;;;18.20;99.90;;;;;;6239097;23;20008;-60
2023/09/29 02:25:15;;;;;;;16.25;11.52;;;18.20;99.90;;;;;;6239706;23;20008;-59
2023/09/29 02:28:01;;;;;;;15.80;11.32;;;18.20;99.90;;;;;;6240243;23;20004;-59
2023/09/29 02:30:47;;;;;;;14.48;10.55;;;18.20;99.90;;;;;;6240097;23;20008;-59
2023/09/29 02:33:33;;;;;;;21.27;12.68;;;18.10;99.90;;;;;;6239192;23;20027;-60
2023/09/29 02:36:19;;;;;;;17.83;11.98;;;18.20;99.90;;;;;;6238900;23;20012;-60
2023/09/29 02:39:08;;;;;;;13.07;10.82;;;18.10;99.90;;;;;;6218452;23;20032;-60
2023/09/29 02:41:54;;;;;;;15.00;11.70;;;18.10;99.90;;;;;;6242178;23;20472;-60
2023/09/29 02:44:40;;;;;;;15.18;10.50;;;18.10;99.90;;;;;;6239981;23;20350;-59
2023/09/29 02:47:26;;;;;;;18.67;12.13;;;18.10;99.90;;;;;;6240492;23;20039;-59
2023/09/29 02:50:12;;;;;;;27.42;11.93;;;18.10;99.90;;;;;;6239608;23;20022;-60
2023/09/29 02:52:58;;;;;;;16.42;12.63;;;18.10;99.90;;;;;;6242340;23;20020;-59
2023/09/29 02:55:45;;;;;;;14.35;11.27;;;18.10;99.90;;;;;;6239105;22;20018;-59
2023/09/29 02:58:34;;;;;;;18.98;12.25;;;18.10;99.90;;;;;;6239387;23;20016;-60
2023/09/29 03:01:20;;;;;;;14.45;11.07;;;18.00;99.90;;;;;;6241212;23;20432;-59
2023/09/29 03:04:07;;;;;;;15.70;10.82;;;18.00;99.90;;;;;;6239918;23;20058;-59
2023/09/29 03:06:53;;;;;;;15.98;11.63;;;18.00;99.90;;;;;;6238337;23;20019;-59
2023/09/29 03:09:39;;;;;;;14.05;11.07;;;18.00;99.90;;;;;;6240491;23;20094;-59
2023/09/29 03:12:25;;;;;;;14.45;11.38;;;17.90;99.90;;;;;;6237671;23;20016;-59
2023/09/29 03:15:15;;;;;;;16.38;10.77;;;17.90;99.90;;;;;;6238150;23;20385;-59
2023/09/29 03:18:01;;;;;;;13.95;10.38;;;17.90;99.90;;;;;;6239158;23;20481;-59
2023/09/29 03:20:47;;;;;;;17.25;11.05;;;17.80;99.90;;;;;;6237994;23;20074;-59
2023/09/29 03:23:35;;;;;;;15.32;10.07;;;17.80;99.90;;;;;;6238723;23;20016;-59
2023/09/29 03:26:22;;;;;;;16.63;10.45;;;17.80;99.90;;;;;;6238034;23;20015;-59
2023/09/29 03:29:09;;;;;;;16.02;11.07;;;17.80;99.90;;;;;;6238079;23;20039;-58
2023/09/29 03:31:54;;;;;;;16.05;11.05;;;17.80;99.90;;;;;;6237350;23;20024;-58
2023/09/29 03:34:42;;;;;;;14.20;11.00;;;17.80;99.90;;;;;;6237306;23;20016;-59
2023/09/29 03:37:29;;;;;;;15.02;11.57;;;17.70;99.90;;;;;;6238561;23;20070;-58
2023/09/29 03:40:15;;;;;;;14.32;10.43;;;17.70;99.90;;;;;;6237902;23;20031;-58
2023/09/29 03:43:01;;;;;;;17.25;11.80;;;17.70;99.90;;;;;;6238157;23;20429;-58
2023/09/29 03:45:49;;;;;;;13.45;10.43;;;17.70;99.90;;;;;;6238810;23;20549;-58
2023/09/29 03:48:36;;;;;;;13.27;10.52;;;17.60;99.90;;;;;;6238508;23;20009;-59
2023/09/29 03:51:23;;;;;;;16.88;10.38;;;17.70;99.90;;;;;;6238104;23;20020;-58
2023/09/29 03:54:09;;;;;;;14.30;10.90;;;17.70;99.90;;;;;;6238989;23;20119;-58
2023/09/29 03:56:55;;;;;;;15.32;11.25;;;17.70;99.90;;;;;;6238221;22;20239;-59
2023/09/29 03:59:42;;;;;;;16.10;11.98;;;17.70;99.90;;;;;;6237352;23;20012;-59
2023/09/29 04:02:28;;;;;;;14.57;10.63;;;17.60;99.90;;;;;;6239295;23;20434;-58
2023/09/29 04:05:15;;;;;;;14.18;11.18;;;17.60;99.90;;;;;;6238928;23;20058;-58
2023/09/29 04:08:01;;;;;;;13.93;10.45;;;17.60;99.90;;;;;;6238829;23;20078;-62
2023/09/29 04:10:47;;;;;;;14.50;10.05;;;17.60;99.90;;;;;;6238722;23;20043;-59
2023/09/29 04:13:33;;;;;;;14.20;11.13;;;17.60;99.90;;;;;;6237823;23;20070;-58
2023/09/29 04:16:19;;;;;;;17.75;10.90;;;17.50;99.90;;;;;;6238693;23;20012;-59
2023/09/29 04:19:05;;;;;;;16.98;11.98;;;17.60;99.90;;;;;;6239598;23;20095;-59
2023/09/29 04:21:51;;;;;;;19.90;11.93;;;17.50;99.90;;;;;;6239233;23;20077;-58
2023/09/29 04:24:38;;;;;;;18.00;11.45;;;17.50;99.90;;;;;;6238828;23;20012;-58
2023/09/29 04:27:25;;;;;;;15.82;12.43;;;17.50;99.90;;;;;;6239283;23;20018;-58
2023/09/29 04:30:12;;;;;;;12.52;10.73;;;17.50;99.90;;;;;;6239441;23;20353;-59
2023/09/29 04:32:58;;;;;;;17.33;11.65;;;17.50;99.90;;;;;;6238969;23;20127;-58
2023/09/29 04:35:44;;;;;;;16.95;10.23;;;17.50;99.90;;;;;;6218928;23;20026;-58
2023/09/29 04:38:30;;;;;;;17.60;10.07;;;17.40;99.90;;;;;;6239755;23;20035;-58
2023/09/29 04:41:16;;;;;;;16.50;10.50;;;17.40;99.90;;;;;;6241291;23;20346;-58
2023/09/29 04:44:04;;;;;;;13.57;10.52;;;17.50;99.90;;;;;;6239170;23;20034;-58
2023/09/29 04:46:50;;;;;;;16.50;10.52;;;17.40;99.90;;;;;;6240022;23;20043;-59
2023/09/29 04:49:36;;;;;;;14.05;10.68;;;17.40;99.90;;;;;;6242144;23;20020;-60
2023/09/29 04:52:22;;;;;;;14.18;10.13;;;17.40;99.90;;;;;;6240162;23;20016;-58
2023/09/29 04:55:09;;;;;;;17.80;11.30;;;17.40;99.90;;;;;;6242894;22;20055;-60
2023/09/29 04:57:55;;;;;;;13.80;10.02;;;17.40;99.90;;;;;;6240121;23;20129;-61
2023/09/29 05:00:42;;;;;;;16.38;11.15;;;17.40;99.90;;;;;;6239895;23;20362;-60
2023/09/29 05:03:28;;;;;;;14.82;11.30;;;17.40;99.90;;;;;;6240149;23;20012;-60
2023/09/29 05:06:14;;;;;;;26.08;11.48;;;17.40;99.90;;;;;;6240590;23;20146;-59
2023/09/29 05:09:00;;;;;;;12.52;9.75;;;17.40;99.90;;;;;;6240024;23;20012;-60
2023/09/29 05:11:46;;;;;;;14.25;10.48;;;17.40;99.90;;;;;;6242165;23;20012;-60
2023/09/29 05:14:33;;;;;;;15.70;10.48;;;17.40;99.90;;;;;;6239911;23;20012;-60
2023/09/29 05:17:19;;;;;;;13.90;10.15;;;17.40;99.90;;;;;;6239047;23;20516;-61
2023/09/29 05:20:05;;;;;;;16.33;10.63;;;17.40;99.90;;;;;;6242482;23;20393;-60
2023/09/29 05:22:51;;;;;;;11.68;9.27;;;17.40;99.90;;;;;;6240550;23;20012;-60
2023/09/29 05:25:39;;;;;;;13.23;9.98;;;17.40;99.90;;;;;;6240591;23;20015;-61
2023/09/29 05:28:25;;;;;;;15.13;10.50;;;17.50;99.90;;;;;;6219189;23;20012;-60
2023/09/29 05:31:11;;;;;;;12.43;9.57;;;17.50;99.90;;;;;;6241289;23;20083;-60
2023/09/29 05:33:57;;;;;;;15.10;10.15;;;17.50;99.90;;;;;;6241215;23;20035;-60
2023/09/29 05:36:45;;;;;;;14.52;9.93;;;17.40;99.90;;;;;;6239797;23;20008;-61
2023/09/29 05:39:31;;;;;;;13.95;10.02;;;17.50;99.90;;;;;;6240837;23;20008;-61
2023/09/29 05:42:21;;;;;;;16.33;9.57;;;17.50;99.90;;;;;;6240206;23;20004;-61
2023/09/29 05:45:07;;;;;;;13.00;8.45;;;17.60;99.90;;;;;;6240715;23;20016;-61
2023/09/29 05:47:53;;;;;;;15.00;9.63;;;17.60;99.90;;;;;;6241042;23;20004;-60
2023/09/29 05:50:40;;;;;;;15.18;9.77;;;17.60;99.90;;;;;;6240508;23;20326;-60
2023/09/29 05:53:26;;;;;;;16.15;10.55;;;17.60;99.90;;;;;;6240262;23;20070;-61
2023/09/29 05:56:13;;;;;;;21.15;9.85;;;17.70;99.90;;;;;;6240410;22;20019;-62
2023/09/29 05:58:59;;;;;;;16.02;9.73;;;17.80;99.90;;;;;;6239132;23;20445;-58
2023/09/29 06:01:46;;;;;;;11.32;8.48;;;17.80;99.90;;;;;;6239464;23;20051;-59
2023/09/29 06:04:32;;;;;;;11.77;8.93;;;17.90;99.90;;;;;;6239337;23;20168;-60
2023/09/29 06:07:18;;;;;;;14.75;9.00;;;18.00;99.90;;;;;;6239443;23;20094;-60
2023/09/29 06:10:05;;;;;;;14.35;9.23;;;18.00;99.90;;;;;;6241070;23;20327;-59
2023/09/29 06:12:51;;;;;;;12.63;8.35;;;18.20;99.90;;;;;;6219189;23;20074;-60
2023/09/29 06:15:38;;;;;;;15.35;8.65;;;18.20;99.90;;;;;;6239473;23;20012;-60
2023/09/29 06:18:25;;;;;;;12.23;7.78;;;18.30;99.90;;;;;;6241239;23;20019;-60
2023/09/29 06:21:11;;;;;;;13.95;8.75;;;18.30;99.90;;;;;;6239642;23;20011;-60
2023/09/29 06:23:57;;;;;;;12.43;8.23;;;18.40;99.90;;;;;;6240955;23;20019;-59
2023/09/29 06:26:43;;;;;;;12.88;8.32;;;18.40;99.90;;;;;;6239471;23;20082;-60
2023/09/29 06:29:29;;;;;;;13.30;8.60;;;18.50;99.90;;;;;;6239113;23;20450;-60
2023/09/29 06:32:16;;;;;;;14.77;8.68;;;18.50;99.90;;;;;;6237529;23;20023;-65
2023/09/29 06:35:02;;;;;;;10.63;7.50;;;18.60;99.90;;;;;;6237851;23;20457;-63
2023/09/29 06:37:48;;;;;;;12.80;7.90;;;18.60;99.90;;;;;;6237118;23;20390;-64
2023/09/29 06:40:34;;;;;;;13.13;7.68;;;18.70;99.90;;;;;;6239222;23;20015;-63
2023/09/29 06:43:20;;;;;;;11.13;8.10;;;18.70;99.90;;;;;;6239455;23;20019;-63
2023/09/29 06:46:06;;;;;;;11.27;8.23;;;18.70;99.90;;;;;;6239162;23;20342;-63
2023/09/29 06:48:52;;;;;;;10.82;7.95;;;18.70;99.90;;;;;;6239166;23;20008;-63
2023/09/29 06:51:38;;;;;;;12.90;8.27;;;18.70;99.90;;;;;;6239663;23;20027;-63
2023/09/29 06:54:24;;;;;;;16.40;8.18;;;18.80;99.90;;;;;;6239194;23;20314;-63
2023/09/29 06:57:10;;;;;;;14.55;7.30;;;18.80;99.90;;;;;;6239950;22;20315;-63
2023/09/29 06:59:56;;;;;;;11.98;8.18;;;18.90;99.90;;;;;;6239379;23;20004;-62
2023/09/29 07:02:43;;;;;;;12.00;8.45;;;18.90;99.90;;;;;;6239018;23;20438;-62
2023/09/29 07:05:29;;;;;;;12.80;8.15;;;19.00;99.90;;;;;;6238309;23;20018;-62
2023/09/29 07:08:15;;;;;;;11.73;7.35;;;19.00;99.90;;;;;;6238706;23;20464;-62
2023/09/29 07:11:01;;;;;;;11.07;7.25;;;19.10;99.90;;;;;;6237827;23;20004;-62
2023/09/29 07:13:47;;;;;;;12.70;7.85;;;19.20;99.90;;;;;;6239044;23;20016;-63
2023/09/29 07:16:33;;;;;;;14.65;8.05;;;19.20;99.90;;;;;;6237093;23;20082;-63
2023/09/29 07:19:19;;;;;;;13.43;7.57;;;19.30;99.90;;;;;;6238898;23;20099;-62
2023/09/29 07:22:05;;;;;;;11.27;7.30;;;19.40;99.90;;;;;;6238477;23;20066;-62
2023/09/29 07:24:57;;;;;;;9.98;7.15;;;19.50;99.90;;;;;;6239008;23;20011;-63
2023/09/29 07:27:43;;;;;;;13.02;7.85;;;19.60;99.90;;;;;;6240404;23;20108;-62
2023/09/29 07:30:30;;;;;;;12.55;7.97;;;19.60;99.90;;;;;;6240329;23;20553;-63
2023/09/29 07:33:16;;;;;;;12.63;7.35;;;19.70;99.90;;;;;;6240663;23;20066;-63
2023/09/29 07:36:02;;;;;;;12.73;7.25;;;19.80;99.90;;;;;;6240861;23;20031;-62
2023/09/29 07:38:48;;;;;;;9.13;6.80;;;19.90;99.90;;;;;;6238827;23;20390;-80
2023/09/29 07:41:34;;;;;;;10.73;7.43;;;20.00;99.90;;;;;;6238979;23;20456;-80
2023/09/29 07:44:20;;;;;;;11.50;6.25;;;20.10;99.80;;;;;;6239243;23;20047;-80
2023/09/29 07:47:06;;;;;;;11.75;6.25;;;20.20;99.90;;;;;;6239502;23;20008;-81
2023/09/29 07:49:52;;;;;;;19.42;7.70;;;20.20;99.80;;;;;;6247077;23;20042;-79
2023/09/29 07:52:39;;;;;;;13.63;6.95;;;20.40;99.60;;;;;;6255946;23;20020;-80
2023/09/29 07:55:25;;;;;;;9.20;6.03;;;20.50;99.50;;;;;;6262127;22;20012;-81
2023/09/29 07:58:11;;;;;;;8.57;5.88;;;20.60;99.40;;;;;;6260653;23;20068;-79
2023/09/29 08:00:56;;;;;;;10.73;5.70;;;20.70;99.20;;;;;;6260706;23;20059;-80
2023/09/29 08:03:44;;;;;;;9.63;6.10;;;20.80;99.30;;;;;;6251567;23;20016;-79
2023/09/29 08:06:30;;;;;;;11.40;6.32;;;20.90;99.20;;;;;;6244943;23;20004;-79
2023/09/29 08:09:16;;;;;;;7.68;5.13;;;21.10;99.10;;;;;;6240058;23;20031;-80
2023/09/29 08:12:02;;;;;;;11.80;5.85;;;21.20;99.10;;;;;;6239191;23;20016;-79
2023/09/29 08:14:48;;;;;;;8.38;5.03;;;21.30;98.90;;;;;;6239506;23;20004;-80
2023/09/29 08:17:33;;;;;;;10.45;5.95;;;21.50;98.80;;;;;;6238771;23;20231;-78
2023/09/29 08:20:20;;;;;;;8.85;5.65;;;21.50;98.80;;;;;;6239843;23;20099;-75
2023/09/29 08:23:06;;;;;;;7.53;4.63;;;21.70;98.50;;;;;;6252487;23;20388;-80
2023/09/29 08:25:52;;;;;;;8.45;5.13;;;21.70;98.30;;;;;;6241295;23;20020;-79
2023/09/29 08:28:38;;;;;;;11.45;5.78;;;21.80;98.30;;;;;;6240791;23;20009;-80
2023/09/29 08:31:25;;;;;;;11.43;5.75;;;21.90;98.40;;;;;;6239995;23;20016;-80
2023/09/29 08:34:11;;;;;;;10.07;5.93;;;22.00;98.20;;;;;;6239804;23;20024;-79
2023/09/29 08:36:57;;;;;;;11.48;4.90;;;22.10;97.90;;;;;;6240378;23;20179;-79
2023/09/29 08:39:43;;;;;;;9.57;5.65;;;22.20;97.80;;;;;;6242626;23;20012;-80
2023/09/29 08:42:29;;;;;;;12.20;5.53;;;22.30;97.80;;;;;;6241228;23;20437;-80
2023/09/29 08:45:17;;;;;;;8.23;5.07;;;22.30;97.60;;;;;;6247542;23;20012;-78
2023/09/29 08:48:11;;;;;;;9.25;5.30;;;22.40;97.70;;;;;;6247023;23;20039;-80
2023/09/29 08:51:01;;;;;;;10.38;4.68;;;22.40;97.80;;;;;;6241516;23;20461;-80
2023/09/29 08:53:50;;;;;;;9.73;5.40;;;22.40;97.70;;;;;;6242447;23;20295;-78
2023/09/29 08:56:36;;;;;;;8.73;5.00;;;22.50;97.40;;;;;;6240668;22;20015;-77
2023/09/29 08:59:22;;;;;;;6.68;4.63;;;22.60;97.30;;;;;;6242068;23;20012;-79
2023/09/29 09:02:08;;;;;;;8.95;5.00;;;22.60;97.50;;;;;;6246888;23;20008;-80
2023/09/29 09:04:54;;;;;;;8.00;5.15;;;22.60;97.30;;;;;;6248308;23;20020;-79
2023/09/29 09:07:41;;;;;;;6.97;4.82;;;22.70;97.30;;;;;;6244582;23;20055;-80
2023/09/29 09:10:34;;;;;;;9.20;4.90;;;22.80;97.20;;;;;;6244176;23;20019;-79
2023/09/29 09:13:21;;;;;;;9.38;4.72;;;22.90;97.20;;;;;;6242357;23;20024;-81
2023/09/29 09:16:07;;;;;;;10.25;5.10;;;23.00;97.10;;;;;;6238686;23;20095;-80
2023/09/29 09:18:53;;;;;;;8.75;4.75;;;23.10;96.90;;;;;;6246415;23;20014;-79
2023/09/29 09:21:42;;;;;;;9.00;5.15;;;23.10;96.70;;;;;;6242648;23;20371;-79
2023/09/29 09:24:28;;;;;;;7.97;4.78;;;23.20;96.70;;;;;;6243560;23;20019;-80
2023/09/29 09:27:14;;;;;;;7.43;4.45;;;23.20;96.70;;;;;;6250631;23;20082;-78
2023/09/29 09:30:00;;;;;;;13.88;4.90;;;23.20;96.60;;;;;;6243151;23;20008;-79
2023/09/29 09:32:47;;;;;;;6.85;4.63;;;23.20;96.50;;;;;;6243639;23;20016;-79
2023/09/29 09:35:36;;;;;;;8.15;4.75;;;23.30;96.40;;;;;;6242632;23;20046;-80
2023/09/29 09:38:31;;;;;;;5.95;4.00;;;23.30;96.40;;;;;;6241008;23;20012;-78
2023/09/29 09:41:18;;;;;;;6.13;4.35;;;23.30;96.30;;;;;;6240890;23;20062;-79
2023/09/29 09:44:04;;;;;;;10.18;4.68;;;23.30;96.40;;;;;;6240826;23;20016;-79
2023/09/29 09:47:04;;;;;;;11.18;4.13;;;23.30;96.30;;;;;;6241850;23;20074;-80
2023/09/29 09:49:52;;;;;;;6.22;4.50;;;23.30;96.10;;;;;;6238626;23;20024;-81
2023/09/29 09:52:42;;;;;;;6.57;4.28;;;23.30;96.10;;;;;;6239747;23;20346;-80
2023/09/29 09:55:55;;;;;;;12.50;4.13;;;23.40;96.10;;;;;;6242872;22;20099;-81
2023/09/29 09:58:42;;;;;;;8.75;4.55;;;23.40;96.10;;;;;;6245725;23;20513;-80
2023/09/29 10:01:28;;;;;;;7.28;4.38;;;23.50;96.00;;;;;;6228245;23;20446;-81
2023/09/29 10:04:15;;;;;;;6.95;3.83;;;23.60;95.90;;;;;;6250004;23;20012;-77
2023/09/29 10:07:01;;;;;;;8.68;4.22;;;23.60;95.80;;;;;;6242388;23;20008;-79
2023/09/29 10:09:49;;;;;;;8.43;4.00;;;23.70;95.80;;;;;;6270283;23;20027;-80
2023/09/29 10:12:35;;;;;;;6.75;4.00;;;23.70;95.90;;;;;;6267607;23;20024;-78
2023/09/29 10:15:21;;;;;;;7.00;4.05;;;23.80;95.90;;;;;;6256867;22;20016;-62
2023/09/29 10:18:20;;;;;;;8.63;4.38;;;23.80;95.80;;;;;;6239828;23;20015;-62
2023/09/29 10:21:09;;;;;;;11.38;4.57;;;24.00;95.80;;;;;;6240112;23;20012;-61
2023/09/29 10:24:00;;;;;;;4.97;3.30;;;24.00;95.60;;;;;;6239679;23;20025;-61
2023/09/29 10:26:48;;;;;;;7.82;3.70;;;24.10;95.80;;;;;;6239104;23;20466;-63
2023/09/29 10:29:34;;;;;;;6.60;3.53;;;24.20;95.30;;;;;;6239276;23;20016;-62
2023/09/29 10:32:31;;;;;;;9.60;4.65;;;24.20;95.20;;;;;;6240668;23;20397;-61
2023/09/29 10:35:22;;;;;;;6.13;4.50;;;24.20;95.10;;;;;;6238354;23;20319;-62
2023/09/29 10:38:10;;;;;;;16.35;4.50;;;24.30;95.10;;;;;;6238700;23;20018;-62
2023/09/29 10:40:58;;;;;;;7.68;4.20;;;24.30;94.90;;;;;;6240097;23;20357;-62
2023/09/29 10:43:48;;;;;;;6.22;3.83;;;24.30;94.80;;;;;;6239435;23;20012;-62
2023/09/29 10:46:36;;;;;;;9.55;3.85;;;24.30;94.70;;;;;;6240392;23;20016;-62
2023/09/29 10:49:32;;;;;;;6.40;4.30;;;24.30;94.60;;;;;;6239364;23;20008;-61
2023/09/29 10:52:19;;;;;;;9.32;3.88;;;24.50;94.70;;;;;;6238051;23;20089;-63
2023/09/29 10:55:06;;;;;;;5.90;4.07;;;24.50;94.60;;;;;;6239409;22;20031;-63
2023/09/29 10:57:52;;;;;;;5.68;4.18;;;24.50;94.40;;;;;;6239028;23;20095;-62
2023/09/29 11:00:49;;;;;;;5.95;3.67;;;24.60;94.50;;;;;;6239130;23;20000;-62
2023/09/29 11:03:35;;;;;;;5.88;3.97;;;24.60;94.50;;;;;;6238849;23;20016;-63
2023/09/29 11:06:21;;;;;;;7.82;4.25;;;24.70;94.60;;;;;;6238964;23;20094;-62
2023/09/29 11:09:07;;;;;;;6.53;3.85;;;24.80;94.40;;;;;;6238550;23;20091;-62
2023/09/29 11:11:53;;;;;;;6.60;3.55;;;24.80;94.50;;;;;;6240179;23;20047;-62
2023/09/29 11:14:39;;;;;;;11.02;3.70;;;24.80;94.40;;;;;;6239931;23;20008;-62
2023/09/29 11:17:25;;;;;;;6.93;4.30;;;24.80;94.40;;;;;;6239059;23;20099;-62
2023/09/29 11:20:15;;;;;;;7.57;3.65;;;24.80;94.40;;;;;;6239656;23;20011;-62
2023/09/29 11:23:11;;;;;;;7.82;3.88;;;24.80;94.30;;;;;;6241261;23;20074;-62
2023/09/29 11:25:58;;;;;;;5.00;3.33;;;24.80;94.10;;;;;;6247410;23;20066;-79
2023/09/29 11:28:47;;;;;;;8.98;4.05;;;24.80;93.90;;;;;;6252770;23;20012;-80
2023/09/29 11:31:33;;;;;;;6.25;4.13;;;24.70;94.30;;;;;;6248847;23;20058;-80
2023/09/29 11:34:20;;;;;;;6.80;3.50;;;24.70;94.10;;;;;;6247720;23;20024;-79
2023/09/29 11:37:06;;;;;;;7.32;4.25;;;24.80;94.40;;;;;;6240358;23;20008;-80
2023/09/29 11:39:52;;;;;;;7.15;3.95;;;24.80;94.30;;;;;;6249592;23;20012;-79
2023/09/29 11:42:44;;;;;;;9.20;4.22;;;24.80;94.30;;;;;;6239104;23;20087;-78
2023/09/29 11:45:30;;;;;;;6.55;3.70;;;24.80;94.40;;;;;;6238738;23;20306;-79
2023/09/29 11:48:16;;;;;;;6.40;3.60;;;24.80;94.30;;;;;;6239008;23;20065;-77
2023/09/29 11:51:03;;;;;;;5.65;3.33;;;24.80;94.30;;;;;;6239323;23;20150;-79
2023/09/29 11:53:50;;;;;;;9.13;3.65;;;24.80;94.40;;;;;;6240756;23;20020;-79
2023/09/29 11:56:36;;;;;;;11.75;4.32;;;24.70;94.30;;;;;;6241149;22;20047;-78
2023/09/29 11:59:22;;;;;;;5.95;3.45;;;24.80;94.30;;;;;;6243256;23;20087;-80
2023/09/29 12:02:08;;;;;;;10.13;4.07;;;24.90;94.10;;;;;;6241089;23;20014;-78
2023/09/29 12:04:53;;;;;;;7.50;4.00;;;24.90;94.00;;;;;;6241638;23;20097;-79
2023/09/29 12:07:39;;;;;;;8.43;4.03;;;24.90;93.80;;;;;;6241489;23;20012;-79
2023/09/29 12:10:25;;;;;;;7.28;4.22;;;24.90;93.80;;;;;;6242709;23;20346;-79
2023/09/29 12:13:15;;;;;;;6.88;4.00;;;24.90;93.90;;;;;;6241860;23;20264;-80
2023/09/29 12:16:03;;;;;;;6.53;3.90;;;25.00;93.80;;;;;;6244841;23;20004;-79
2023/09/29 12:18:49;;;;;;;5.63;3.88;;;25.00;94.00;;;;;;6242349;23;20008;-78
2023/09/29 12:21:35;;;;;;;6.95;4.40;;;25.00;94.00;;;;;;6246376;23;20012;-78
2023/09/29 12:24:21;;;;;;;9.48;3.55;;;25.00;93.90;;;;;;6251886;23;20015;-77
2023/09/29 12:27:10;;;;;;;8.00;3.50;;;25.10;93.80;;;;;;6251560;23;20020;-78
2023/09/29 12:29:56;;;;;;;7.55;3.85;;;25.10;93.90;;;;;;6255272;23;20024;-76
2023/09/29 12:32:42;;;;;;;8.90;3.75;;;25.10;94.10;;;;;;6255243;23;20579;-78
2023/09/29 12:35:28;;;;;;;4.93;3.25;;;25.00;94.20;;;;;;6253142;23;20016;-78
2023/09/29 12:38:14;;;;;;;6.07;3.90;;;25.00;94.20;;;;;;6245997;23;20016;-78
2023/09/29 12:41:00;;;;;;;8.35;3.72;;;25.00;94.20;;;;;;6241106;23;20012;-78
2023/09/29 12:43:46;;;;;;;6.15;3.83;;;24.90;94.10;;;;;;6240888;23;20051;-78
2023/09/29 12:46:32;;;;;;;7.28;3.60;;;24.90;94.20;;;;;;6241411;23;20032;-79
2023/09/29 12:49:18;;;;;;;10.43;3.60;;;24.80;94.00;;;;;;6243916;23;20378;-78
2023/09/29 12:52:04;;;;;;;7.97;4.07;;;24.70;94.10;;;;;;6242791;23;20094;-79
2023/09/29 12:54:51;;;;;;;5.80;3.35;;;24.70;94.10;;;;;;6241391;23;20042;-79
2023/09/29 12:57:38;;;;;;;5.88;3.95;;;24.60;94.10;;;;;;6240131;23;20020;-78
2023/09/29 13:00:28;;;;;;;6.93;3.72;;;24.50;94.10;;;;;;6241150;23;20012;-78
2023/09/29 13:03:14;;;;;;;7.72;3.90;;;24.50;94.20;;;;;;6218119;23;20405;-79
2023/09/29 13:06:00;;;;;;;7.65;3.67;;;24.50;94.30;;;;;;6241345;23;20331;-78
2023/09/29 13:08:46;;;;;;;8.10;4.05;;;24.40;94.60;;;;;;6238374;23;20030;-79
2023/09/29 13:11:32;;;;;;;7.40;4.20;;;24.30;94.80;;;;;;6233848;23;20090;-79
2023/09/29 13:14:18;;;;;;;6.03;3.50;;;24.30;95.20;;;;;;6239564;23;20012;-78
2023/09/29 13:17:05;;;;;;;6.47;4.47;;;24.20;95.40;;;;;;6240405;23;20081;-77
2023/09/29 13:19:51;;;;;;;9.02;4.15;;;24.20;95.50;;;;;;6242044;23;20163;-81
2023/09/29 13:22:38;;;;;;;11.18;4.88;;;24.10;95.50;;;;;;6240289;23;20540;-80
2023/09/29 13:25:25;;;;;;;6.13;4.13;;;24.00;95.50;;;;;;6241603;23;20445;-80
2023/09/29 13:28:11;;;;;;;7.25;4.75;;;24.00;95.70;;;;;;6240779;23;20057;-76
2023/09/29 13:30:58;;;;;;;8.32;4.53;;;24.00;95.70;;;;;;6240138;22;20020;-70
2023/09/29 13:33:44;;;;;;;5.50;3.95;;;23.90;95.90;;;;;;6239284;23;20028;-75
2023/09/29 13:36:35;;;;;;;9.73;5.30;;;23.90;96.20;;;;;;6239104;23;20091;-74
2023/09/29 13:39:21;;;;;;;13.15;4.50;;;23.80;96.40;;;;;;6238944;23;20015;-72
2023/09/29 13:42:07;;;;;;;7.47;4.25;;;23.80;96.40;;;;;;6238822;23;20004;-69
2023/09/29 13:44:55;;;;;;;13.93;4.32;;;23.80;96.60;;;;;;6239098;23;20044;-74
2023/09/29 13:47:41;;;;;;;5.65;3.47;;;23.80;96.60;;;;;;6238526;23;20004;-73
2023/09/29 13:50:27;;;;;;;9.65;3.38;;;23.80;96.50;;;;;;6239203;23;20012;-76
2023/09/29 13:53:13;;;;;;;6.05;3.78;;;23.90;96.50;;;;;;6239122;23;20345;-79
2023/09/29 13:56:04;;;;;;;6.78;3.50;;;23.90;96.50;;;;;;6239570;22;20009;-78
2023/09/29 13:58:51;;;;;;;7.90;4.00;;;24.00;96.50;;;;;;6240632;23;20059;-79
2023/09/29 14:01:37;;;;;;;9.48;4.63;;;24.00;96.60;;;;;;6239599;23;20012;-79
2023/09/29 14:04:23;;;;;;;7.35;4.07;;;24.00;96.60;;;;;;6239130;23;20523;-80
2023/09/29 14:07:09;;;;;;;6.53;3.92;;;24.00;96.50;;;;;;6240838;23;20046;-80
2023/09/29 14:09:55;;;;;;;6.55;4.32;;;24.00;96.50;;;;;;6239181;23;20015;-80
2023/09/29 14:12:41;;;;;;;7.28;4.32;;;24.00;96.40;;;;;;6240312;23;20016;-81
2023/09/29 14:15:27;;;;;;;6.30;4.25;;;24.00;96.40;;;;;;6240135;23;20369;-80